Howards Grove, Wisconsin
Current Conditions -  °F | °C
As of 12:53 PM on Friday 28 Nov 2014 (Local Time) from KSBM Reporting Station
Overcast Overcast  
Wind Chill: 16°   Ceiling: 6500
Heat Index: 24°   Visibility: 10mi
Dew Point: 19°   Wind: 7mph
Humidity: 81%   Direction: 170°S
Pressure: 30.04"   Gusts: NA
Location:  43.8288°N, 87.7756°W
Report Text: KSBM 281853Z AUTO 17006KT 10SM SCT011 OVC065 M04/M07 A3004 RMK AO2 SLP188 T10441072
Loading
Personal Weather Stations






























Interactive Weather Map New forecast layout! Learn more

10-Day Weather Forecast

Advertisements
Track Severe Weather on mobile